Terminal Aerodrome Forecast
Issued by NWS Sterling, VA

Home | Current Version | Previous Version | Text Only | Print | Product List | Glossary On
Versions: 1 2 3 4 5 6 7 8 9 10 11 12 13 14
009
FTUS41 KLWX 191130
TAFMRB
TAF
KMRB 191130Z 1912/2012 27006KT P6SM BKN080
     FM191400 29010KT P6SM SCT080
     FM192000 30011G21KT P6SM FEW200
     FM192300 30009KT P6SM FEW200
     FM200500 31005KT P6SM FEW250=

USA.gov is the U.S. government's official web portal to all federal, state and local government web resources and services.